sensor_id;sensor_type;location;lat;lon;timestamp;P1;durP1;ratioP1;P2;durP2;ratioP2
81703;SDS011;71117;52.352;4.808;2023-08-01T00:01:09;11.60;;;2.70;;
81703;SDS011;71117;52.352;4.808;2023-08-01T00:03:34;10.23;;;2.72;;
81703;SDS011;71117;52.352;4.808;2023-08-01T00:05:59;7.32;;;2.40;;
81703;SDS011;71117;52.352;4.808;2023-08-01T00:08:25;8.80;;;2.40;;
81703;SDS011;71117;52.352;4.808;2023-08-01T00:10:50;9.05;;;2.53;;
81703;SDS011;71117;52.352;4.808;2023-08-01T00:13:15;7.13;;;2.90;;
81703;SDS011;71117;52.352;4.808;2023-08-01T00:15:41;7.63;;;2.67;;
81703;SDS011;71117;52.352;4.808;2023-08-01T00:18:06;8.57;;;2.65;;
81703;SDS011;71117;52.352;4.808;2023-08-01T00:20:31;13.38;;;2.88;;
81703;SDS011;71117;52.352;4.808;2023-08-01T00:22:57;11.63;;;3.00;;
81703;SDS011;71117;52.352;4.808;2023-08-01T00:25:22;12.13;;;2.92;;
81703;SDS011;71117;52.352;4.808;2023-08-01T00:27:47;9.65;;;3.40;;
81703;SDS011;71117;52.352;4.808;2023-08-01T00:30:13;8.23;;;3.00;;
81703;SDS011;71117;52.352;4.808;2023-08-01T00:32:38;11.00;;;3.10;;
81703;SDS011;71117;52.352;4.808;2023-08-01T00:35:04;12.35;;;3.65;;
81703;SDS011;71117;52.352;4.808;2023-08-01T00:37:30;11.55;;;3.10;;
81703;SDS011;71117;52.352;4.808;2023-08-01T00:39:55;6.10;;;2.47;;
81703;SDS011;71117;52.352;4.808;2023-08-01T00:42:20;12.27;;;3.50;;
81703;SDS011;71117;52.352;4.808;2023-08-01T00:44:46;11.75;;;3.13;;
81703;SDS011;71117;52.352;4.808;2023-08-01T00:47:13;12.23;;;3.83;;
81703;SDS011;71117;52.352;4.808;2023-08-01T00:49:39;14.38;;;3.63;;
81703;SDS011;71117;52.352;4.808;2023-08-01T00:52:05;8.63;;;2.92;;
81703;SDS011;71117;52.352;4.808;2023-08-01T00:54:30;10.38;;;2.88;;
81703;SDS011;71117;52.352;4.808;2023-08-01T00:57:01;12.02;;;2.65;;
81703;SDS011;71117;52.352;4.808;2023-08-01T00:59:29;14.05;;;3.20;;
81703;SDS011;71117;52.352;4.808;2023-08-01T01:01:55;9.27;;;3.50;;
81703;SDS011;71117;52.352;4.808;2023-08-01T01:04:21;12.85;;;3.38;;
81703;SDS011;71117;52.352;4.808;2023-08-01T01:06:54;12.68;;;3.30;;
81703;SDS011;71117;52.352;4.808;2023-08-01T01:09:21;10.15;;;3.47;;
81703;SDS011;71117;52.352;4.808;2023-08-01T01:11:46;10.45;;;3.63;;
81703;SDS011;71117;52.352;4.808;2023-08-01T01:14:12;7.05;;;3.17;;
81703;SDS011;71117;52.352;4.808;2023-08-01T01:16:37;9.32;;;3.00;;
81703;SDS011;71117;52.352;4.808;2023-08-01T01:19:06;9.20;;;2.58;;
81703;SDS011;71117;52.352;4.808;2023-08-01T01:21:37;8.13;;;3.08;;
81703;SDS011;71117;52.352;4.808;2023-08-01T01:24:04;14.55;;;3.70;;
81703;SDS011;71117;52.352;4.808;2023-08-01T01:26:32;12.65;;;3.13;;
81703;SDS011;71117;52.352;4.808;2023-08-01T01:28:58;9.77;;;3.53;;
81703;SDS011;71117;52.352;4.808;2023-08-01T01:31:25;7.68;;;2.92;;
81703;SDS011;71117;52.352;4.808;2023-08-01T01:33:51;11.38;;;3.42;;
81703;SDS011;71117;52.352;4.808;2023-08-01T01:36:19;11.23;;;3.13;;
81703;SDS011;71117;52.352;4.808;2023-08-01T01:38:44;9.25;;;3.28;;
81703;SDS011;71117;52.352;4.808;2023-08-01T01:41:10;15.55;;;3.47;;
81703;SDS011;71117;52.352;4.808;2023-08-01T01:43:36;9.85;;;2.95;;
81703;SDS011;71117;52.352;4.808;2023-08-01T01:46:02;11.73;;;2.75;;
81703;SDS011;71117;52.352;4.808;2023-08-01T01:48:28;8.10;;;2.80;;
81703;SDS011;71117;52.352;4.808;2023-08-01T01:50:53;7.22;;;2.75;;
81703;SDS011;71117;52.352;4.808;2023-08-01T01:53:18;6.30;;;2.38;;
81703;SDS011;71117;52.352;4.808;2023-08-01T01:55:44;6.75;;;2.45;;
81703;SDS011;71117;52.352;4.808;2023-08-01T01:58:09;5.80;;;1.58;;
81703;SDS011;71117;52.352;4.808;2023-08-01T02:00:34;4.53;;;1.80;;
81703;SDS011;71117;52.352;4.808;2023-08-01T02:03:00;5.65;;;1.75;;
81703;SDS011;71117;52.352;4.808;2023-08-01T02:05:27;7.78;;;2.00;;
81703;SDS011;71117;52.352;4.808;2023-08-01T02:07:53;5.30;;;1.90;;
81703;SDS011;71117;52.352;4.808;2023-08-01T02:10:18;7.05;;;1.92;;
81703;SDS011;71117;52.352;4.808;2023-08-01T02:12:44;6.05;;;2.25;;
81703;SDS011;71117;52.352;4.808;2023-08-01T02:15:09;6.03;;;1.55;;
81703;SDS011;71117;52.352;4.808;2023-08-01T02:17:35;5.85;;;1.65;;
81703;SDS011;71117;52.352;4.808;2023-08-01T02:20:00;7.55;;;2.78;;
81703;SDS011;71117;52.352;4.808;2023-08-01T02:22:25;6.93;;;2.00;;
81703;SDS011;71117;52.352;4.808;2023-08-01T02:24:51;8.90;;;2.03;;
81703;SDS011;71117;52.352;4.808;2023-08-01T02:27:17;6.45;;;1.80;;
81703;SDS011;71117;52.352;4.808;2023-08-01T02:29:42;6.72;;;1.95;;
81703;SDS011;71117;52.352;4.808;2023-08-01T02:32:08;5.40;;;2.05;;
81703;SDS011;71117;52.352;4.808;2023-08-01T02:34:33;5.32;;;1.85;;
81703;SDS011;71117;52.352;4.808;2023-08-01T02:36:58;11.30;;;1.85;;
81703;SDS011;71117;52.352;4.808;2023-08-01T02:39:24;8.90;;;2.17;;
81703;SDS011;71117;52.352;4.808;2023-08-01T02:41:49;10.05;;;2.03;;
81703;SDS011;71117;52.352;4.808;2023-08-01T02:44:15;10.52;;;2.45;;
81703;SDS011;71117;52.352;4.808;2023-08-01T02:46:40;9.43;;;2.38;;
81703;SDS011;71117;52.352;4.808;2023-08-01T02:49:06;8.73;;;2.60;;
81703;SDS011;71117;52.352;4.808;2023-08-01T02:51:31;8.82;;;2.70;;
81703;SDS011;71117;52.352;4.808;2023-08-01T02:53:56;9.35;;;3.05;;
81703;SDS011;71117;52.352;4.808;2023-08-01T02:56:22;8.93;;;2.78;;
81703;SDS011;71117;52.352;4.808;2023-08-01T02:58:47;10.50;;;2.92;;
81703;SDS011;71117;52.352;4.808;2023-08-01T03:01:12;9.32;;;3.20;;
81703;SDS011;71117;52.352;4.808;2023-08-01T03:03:38;8.52;;;3.58;;
81703;SDS011;71117;52.352;4.808;2023-08-01T03:06:04;13.13;;;3.20;;
81703;SDS011;71117;52.352;4.808;2023-08-01T03:08:29;10.23;;;3.00;;
81703;SDS011;71117;52.352;4.808;2023-08-01T03:10:54;11.35;;;3.75;;
81703;SDS011;71117;52.352;4.808;2023-08-01T03:13:20;10.30;;;3.45;;
81703;SDS011;71117;52.352;4.808;2023-08-01T03:15:45;10.75;;;3.42;;
81703;SDS011;71117;52.352;4.808;2023-08-01T03:18:11;8.57;;;3.40;;
81703;SDS011;71117;52.352;4.808;2023-08-01T03:20:36;9.70;;;3.20;;
81703;SDS011;71117;52.352;4.808;2023-08-01T03:23:02;11.65;;;3.15;;
81703;SDS011;71117;52.352;4.808;2023-08-01T03:25:27;10.45;;;3.17;;
81703;SDS011;71117;52.352;4.808;2023-08-01T03:27:53;14.13;;;3.35;;
81703;SDS011;71117;52.352;4.808;2023-08-01T03:30:19;7.38;;;3.00;;
81703;SDS011;71117;52.352;4.808;2023-08-01T03:32:45;11.05;;;3.20;;
81703;SDS011;71117;52.352;4.808;2023-08-01T03:35:11;7.20;;;2.90;;
81703;SDS011;71117;52.352;4.808;2023-08-01T03:37:38;9.02;;;3.25;;
81703;SDS011;71117;52.352;4.808;2023-08-01T03:40:04;11.50;;;3.53;;
81703;SDS011;71117;52.352;4.808;2023-08-01T03:42:33;11.88;;;4.03;;
81703;SDS011;71117;52.352;4.808;2023-08-01T03:44:59;9.15;;;3.20;;
81703;SDS011;71117;52.352;4.808;2023-08-01T03:47:24;10.30;;;4.10;;
81703;SDS011;71117;52.352;4.808;2023-08-01T03:49:50;10.10;;;3.28;;
81703;SDS011;71117;52.352;4.808;2023-08-01T03:52:15;10.10;;;3.28;;
81703;SDS011;71117;52.352;4.808;2023-08-01T03:54:40;18.67;;;3.63;;
81703;SDS011;71117;52.352;4.808;2023-08-01T03:57:05;9.33;;;3.27;;
81703;SDS011;71117;52.352;4.808;2023-08-01T03:59:31;8.18;;;3.63;;
81703;SDS011;71117;52.352;4.808;2023-08-01T04:01:56;9.13;;;3.05;;
81703;SDS011;71117;52.352;4.808;2023-08-01T04:04:22;8.25;;;2.85;;
81703;SDS011;71117;52.352;4.808;2023-08-01T04:06:47;10.93;;;3.30;;
81703;SDS011;71117;52.352;4.808;2023-08-01T04:09:13;12.57;;;3.70;;
81703;SDS011;71117;52.352;4.808;2023-08-01T04:11:38;7.40;;;3.10;;
81703;SDS011;71117;52.352;4.808;2023-08-01T04:14:03;8.52;;;2.90;;
81703;SDS011;71117;52.352;4.808;2023-08-01T04:16:29;11.93;;;3.03;;
81703;SDS011;71117;52.352;4.808;2023-08-01T04:18:54;10.55;;;3.40;;
81703;SDS011;71117;52.352;4.808;2023-08-01T04:21:20;8.38;;;2.80;;
81703;SDS011;71117;52.352;4.808;2023-08-01T04:23:45;9.85;;;3.28;;
81703;SDS011;71117;52.352;4.808;2023-08-01T04:26:10;9.23;;;3.20;;
81703;SDS011;71117;52.352;4.808;2023-08-01T04:28:36;13.80;;;3.47;;
81703;SDS011;71117;52.352;4.808;2023-08-01T04:31:01;10.70;;;3.50;;
81703;SDS011;71117;52.352;4.808;2023-08-01T04:33:26;10.65;;;3.17;;
81703;SDS011;71117;52.352;4.808;2023-08-01T04:35:52;12.30;;;3.22;;
81703;SDS011;71117;52.352;4.808;2023-08-01T04:38:17;12.40;;;3.40;;
81703;SDS011;71117;52.352;4.808;2023-08-01T04:40:43;14.27;;;3.47;;
81703;SDS011;71117;52.352;4.808;2023-08-01T04:43:09;6.05;;;2.70;;
81703;SDS011;71117;52.352;4.808;2023-08-01T04:45:34;6.97;;;2.60;;
81703;SDS011;71117;52.352;4.808;2023-08-01T04:48:00;5.80;;;2.95;;
81703;SDS011;71117;52.352;4.808;2023-08-01T04:50:25;9.77;;;3.28;;
81703;SDS011;71117;52.352;4.808;2023-08-01T04:52:51;9.18;;;2.70;;
81703;SDS011;71117;52.352;4.808;2023-08-01T04:55:16;7.65;;;2.92;;
81703;SDS011;71117;52.352;4.808;2023-08-01T04:57:41;10.65;;;2.58;;
81703;SDS011;71117;52.352;4.808;2023-08-01T05:00:08;8.15;;;2.45;;
81703;SDS011;71117;52.352;4.808;2023-08-01T05:02:34;9.15;;;2.63;;
81703;SDS011;71117;52.352;4.808;2023-08-01T05:05:00;5.30;;;2.72;;
81703;SDS011;71117;52.352;4.808;2023-08-01T05:07:25;9.23;;;2.50;;
81703;SDS011;71117;52.352;4.808;2023-08-01T05:09:50;11.23;;;2.58;;
81703;SDS011;71117;52.352;4.808;2023-08-01T05:12:16;7.50;;;2.72;;
81703;SDS011;71117;52.352;4.808;2023-08-01T05:14:41;8.55;;;2.70;;
81703;SDS011;71117;52.352;4.808;2023-08-01T05:17:07;9.95;;;2.13;;
81703;SDS011;71117;52.352;4.808;2023-08-01T05:19:32;9.60;;;2.88;;
81703;SDS011;71117;52.352;4.808;2023-08-01T05:21:57;7.78;;;2.42;;
81703;SDS011;71117;52.352;4.808;2023-08-01T05:24:23;9.20;;;2.65;;
81703;SDS011;71117;52.352;4.808;2023-08-01T05:26:48;12.80;;;2.35;;
81703;SDS011;71117;52.352;4.808;2023-08-01T05:29:13;8.32;;;2.28;;
81703;SDS011;71117;52.352;4.808;2023-08-01T05:31:39;8.13;;;2.17;;
81703;SDS011;71117;52.352;4.808;2023-08-01T05:34:04;7.05;;;2.10;;
81703;SDS011;71117;52.352;4.808;2023-08-01T05:36:29;13.13;;;2.08;;
81703;SDS011;71117;52.352;4.808;2023-08-01T05:38:55;13.23;;;4.63;;
81703;SDS011;71117;52.352;4.808;2023-08-01T05:41:20;8.23;;;2.63;;
81703;SDS011;71117;52.352;4.808;2023-08-01T05:43:47;8.27;;;2.00;;
81703;SDS011;71117;52.352;4.808;2023-08-01T05:46:14;10.73;;;2.70;;
81703;SDS011;71117;52.352;4.808;2023-08-01T05:48:39;7.57;;;2.25;;
81703;SDS011;71117;52.352;4.808;2023-08-01T05:51:04;5.78;;;2.30;;
81703;SDS011;71117;52.352;4.808;2023-08-01T05:53:30;6.47;;;2.28;;
81703;SDS011;71117;52.352;4.808;2023-08-01T05:55:55;8.10;;;2.70;;
81703;SDS011;71117;52.352;4.808;2023-08-01T05:58:21;8.73;;;2.30;;
81703;SDS011;71117;52.352;4.808;2023-08-01T06:00:46;7.28;;;2.10;;
81703;SDS011;71117;52.352;4.808;2023-08-01T06:03:12;9.38;;;1.92;;
81703;SDS011;71117;52.352;4.808;2023-08-01T06:05:37;5.55;;;1.80;;
81703;SDS011;71117;52.352;4.808;2023-08-01T06:08:03;6.45;;;2.00;;
81703;SDS011;71117;52.352;4.808;2023-08-01T06:10:28;4.75;;;1.65;;
81703;SDS011;71117;52.352;4.808;2023-08-01T06:12:54;11.45;;;2.38;;
81703;SDS011;71117;52.352;4.808;2023-08-01T06:15:19;6.93;;;2.45;;
81703;SDS011;71117;52.352;4.808;2023-08-01T06:17:45;7.55;;;2.17;;
81703;SDS011;71117;52.352;4.808;2023-08-01T06:20:11;7.93;;;2.40;;
81703;SDS011;71117;52.352;4.808;2023-08-01T06:22:37;6.32;;;1.80;;
81703;SDS011;71117;52.352;4.808;2023-08-01T06:25:03;6.03;;;2.17;;
81703;SDS011;71117;52.352;4.808;2023-08-01T06:27:29;6.57;;;1.60;;
81703;SDS011;71117;52.352;4.808;2023-08-01T06:29:54;4.85;;;1.80;;
81703;SDS011;71117;52.352;4.808;2023-08-01T06:32:20;8.45;;;2.13;;
81703;SDS011;71117;52.352;4.808;2023-08-01T06:34:45;9.65;;;2.33;;
81703;SDS011;71117;52.352;4.808;2023-08-01T06:37:10;7.18;;;1.65;;
81703;SDS011;71117;52.352;4.808;2023-08-01T06:39:36;8.07;;;2.15;;
81703;SDS011;71117;52.352;4.808;2023-08-01T06:42:01;11.15;;;2.17;;
81703;SDS011;71117;52.352;4.808;2023-08-01T06:44:26;7.90;;;1.88;;
81703;SDS011;71117;52.352;4.808;2023-08-01T06:46:51;8.40;;;2.17;;
81703;SDS011;71117;52.352;4.808;2023-08-01T06:49:17;5.25;;;1.77;;
81703;SDS011;71117;52.352;4.808;2023-08-01T06:51:42;7.68;;;2.00;;
81703;SDS011;71117;52.352;4.808;2023-08-01T06:54:07;9.80;;;2.08;;
81703;SDS011;71117;52.352;4.808;2023-08-01T06:56:33;11.05;;;2.28;;
81703;SDS011;71117;52.352;4.808;2023-08-01T06:58:58;9.68;;;2.10;;
81703;SDS011;71117;52.352;4.808;2023-08-01T07:01:24;9.27;;;2.58;;
81703;SDS011;71117;52.352;4.808;2023-08-01T07:03:49;6.30;;;2.30;;
81703;SDS011;71117;52.352;4.808;2023-08-01T07:06:17;7.45;;;2.42;;
81703;SDS011;71117;52.352;4.808;2023-08-01T07:08:42;6.75;;;2.30;;
81703;SDS011;71117;52.352;4.808;2023-08-01T07:11:08;5.60;;;2.10;;
81703;SDS011;71117;52.352;4.808;2023-08-01T07:13:33;6.95;;;1.98;;
81703;SDS011;71117;52.352;4.808;2023-08-01T07:15:58;9.13;;;2.08;;
81703;SDS011;71117;52.352;4.808;2023-08-01T07:18:23;7.63;;;2.05;;
81703;SDS011;71117;52.352;4.808;2023-08-01T07:20:58;5.50;;;1.80;;
81703;SDS011;71117;52.352;4.808;2023-08-01T07:23:24;6.78;;;1.92;;
81703;SDS011;71117;52.352;4.808;2023-08-01T07:25:50;6.47;;;1.75;;
81703;SDS011;71117;52.352;4.808;2023-08-01T07:28:15;9.88;;;1.92;;
81703;SDS011;71117;52.352;4.808;2023-08-01T07:30:40;7.47;;;1.98;;
81703;SDS011;71117;52.352;4.808;2023-08-01T07:33:06;6.28;;;1.75;;
81703;SDS011;71117;52.352;4.808;2023-08-01T07:35:31;4.07;;;1.77;;
81703;SDS011;71117;52.352;4.808;2023-08-01T07:37:56;6.57;;;1.80;;
81703;SDS011;71117;52.352;4.808;2023-08-01T07:40:22;7.45;;;1.85;;
81703;SDS011;71117;52.352;4.808;2023-08-01T07:42:47;6.30;;;1.52;;
81703;SDS011;71117;52.352;4.808;2023-08-01T07:45:12;5.35;;;2.08;;
81703;SDS011;71117;52.352;4.808;2023-08-01T07:47:38;5.32;;;1.85;;
81703;SDS011;71117;52.352;4.808;2023-08-01T07:50:03;8.93;;;1.90;;
81703;SDS011;71117;52.352;4.808;2023-08-01T07:52:29;3.42;;;1.77;;
81703;SDS011;71117;52.352;4.808;2023-08-01T07:54:54;3.50;;;1.77;;
81703;SDS011;71117;52.352;4.808;2023-08-01T07:57:22;5.88;;;1.60;;
81703;SDS011;71117;52.352;4.808;2023-08-01T07:59:47;4.68;;;1.70;;
81703;SDS011;71117;52.352;4.808;2023-08-01T08:02:12;10.27;;;2.03;;
81703;SDS011;71117;52.352;4.808;2023-08-01T08:04:38;7.88;;;2.08;;
81703;SDS011;71117;52.352;4.808;2023-08-01T08:07:03;8.77;;;2.17;;
81703;SDS011;71117;52.352;4.808;2023-08-01T08:09:29;7.35;;;1.73;;
81703;SDS011;71117;52.352;4.808;2023-08-01T08:11:54;10.50;;;1.67;;
81703;SDS011;71117;52.352;4.808;2023-08-01T08:14:22;4.00;;;1.50;;
81703;SDS011;71117;52.352;4.808;2023-08-01T08:16:48;4.18;;;1.50;;
81703;SDS011;71117;52.352;4.808;2023-08-01T08:19:13;5.90;;;1.90;;
81703;SDS011;71117;52.352;4.808;2023-08-01T08:21:39;9.85;;;2.30;;
81703;SDS011;71117;52.352;4.808;2023-08-01T08:24:04;6.72;;;2.10;;
81703;SDS011;71117;52.352;4.808;2023-08-01T08:26:29;3.38;;;1.80;;
81703;SDS011;71117;52.352;4.808;2023-08-01T08:28:56;6.47;;;1.95;;
81703;SDS011;71117;52.352;4.808;2023-08-01T08:31:22;4.45;;;2.03;;
81703;SDS011;71117;52.352;4.808;2023-08-01T08:33:47;6.25;;;1.60;;
81703;SDS011;71117;52.352;4.808;2023-08-01T08:36:12;7.32;;;1.75;;
81703;SDS011;71117;52.352;4.808;2023-08-01T08:38:38;7.50;;;2.17;;
81703;SDS011;71117;52.352;4.808;2023-08-01T08:43:45;7.40;;;1.98;;
81703;SDS011;71117;52.352;4.808;2023-08-01T08:46:14;6.03;;;1.92;;
81703;SDS011;71117;52.352;4.808;2023-08-01T08:48:41;7.07;;;2.13;;
81703;SDS011;71117;52.352;4.808;2023-08-01T08:51:07;4.47;;;1.83;;
81703;SDS011;71117;52.352;4.808;2023-08-01T08:53:33;5.18;;;1.40;;
81703;SDS011;71117;52.352;4.808;2023-08-01T08:56:00;6.40;;;1.52;;
81703;SDS011;71117;52.352;4.808;2023-08-01T08:58:31;5.72;;;2.08;;
81703;SDS011;71117;52.352;4.808;2023-08-01T09:00:57;7.68;;;1.70;;
81703;SDS011;71117;52.352;4.808;2023-08-01T09:03:25;3.65;;;1.70;;
81703;SDS011;71117;52.352;4.808;2023-08-01T09:05:51;4.72;;;1.30;;
81703;SDS011;71117;52.352;4.808;2023-08-01T09:08:24;6.90;;;1.70;;
81703;SDS011;71117;52.352;4.808;2023-08-01T09:10:54;7.63;;;1.70;;
81703;SDS011;71117;52.352;4.808;2023-08-01T09:13:20;8.00;;;2.55;;
81703;SDS011;71117;52.352;4.808;2023-08-01T09:15:45;6.35;;;1.67;;
81703;SDS011;71117;52.352;4.808;2023-08-01T09:18:11;6.55;;;1.85;;
81703;SDS011;71117;52.352;4.808;2023-08-01T09:20:43;7.05;;;1.80;;
81703;SDS011;71117;52.352;4.808;2023-08-01T09:23:10;7.07;;;1.73;;
81703;SDS011;71117;52.352;4.808;2023-08-01T09:25:38;5.32;;;1.65;;
81703;SDS011;71117;52.352;4.808;2023-08-01T09:28:20;10.05;;;1.85;;
81703;SDS011;71117;52.352;4.808;2023-08-01T09:30:51;5.07;;;1.60;;
81703;SDS011;71117;52.352;4.808;2023-08-01T09:33:20;6.18;;;1.65;;
81703;SDS011;71117;52.352;4.808;2023-08-01T09:35:48;8.20;;;2.08;;
81703;SDS011;71117;52.352;4.808;2023-08-01T09:38:15;5.07;;;1.75;;
81703;SDS011;71117;52.352;4.808;2023-08-01T09:40:40;7.00;;;1.88;;
81703;SDS011;71117;52.352;4.808;2023-08-01T09:43:07;9.05;;;2.05;;
81703;SDS011;71117;52.352;4.808;2023-08-01T09:45:32;9.48;;;2.42;;
81703;SDS011;71117;52.352;4.808;2023-08-01T09:47:59;3.65;;;1.30;;
81703;SDS011;71117;52.352;4.808;2023-08-01T09:50:25;5.78;;;1.25;;
81703;SDS011;71117;52.352;4.808;2023-08-01T09:52:50;4.97;;;1.70;;
81703;SDS011;71117;52.352;4.808;2023-08-01T09:55:26;8.88;;;1.98;;
81703;SDS011;71117;52.352;4.808;2023-08-01T09:57:58;5.18;;;1.65;;
81703;SDS011;71117;52.352;4.808;2023-08-01T10:00:27;15.70;;;2.08;;
81703;SDS011;71117;52.352;4.808;2023-08-01T10:05:28;7.95;;;1.52;;
81703;SDS011;71117;52.352;4.808;2023-08-01T10:07:55;6.68;;;1.55;;
81703;SDS011;71117;52.352;4.808;2023-08-01T10:12:51;8.63;;;1.60;;
81703;SDS011;71117;52.352;4.808;2023-08-01T10:15:18;5.53;;;1.73;;
81703;SDS011;71117;52.352;4.808;2023-08-01T10:17:44;8.35;;;2.25;;
81703;SDS011;71117;52.352;4.808;2023-08-01T10:20:09;8.35;;;2.00;;
81703;SDS011;71117;52.352;4.808;2023-08-01T10:22:37;10.07;;;2.05;;
81703;SDS011;71117;52.352;4.808;2023-08-01T10:25:04;4.47;;;2.40;;
81703;SDS011;71117;52.352;4.808;2023-08-01T10:27:30;6.82;;;2.22;;
81703;SDS011;71117;52.352;4.808;2023-08-01T10:29:59;3.72;;;2.28;;
81703;SDS011;71117;52.352;4.808;2023-08-01T10:32:33;5.60;;;2.10;;
81703;SDS011;71117;52.352;4.808;2023-08-01T10:35:03;7.13;;;2.22;;
81703;SDS011;71117;52.352;4.808;2023-08-01T10:37:42;8.63;;;2.17;;
81703;SDS011;71117;52.352;4.808;2023-08-01T10:40:08;4.28;;;1.45;;
81703;SDS011;71117;52.352;4.808;2023-08-01T10:42:40;3.83;;;1.65;;
81703;SDS011;71117;52.352;4.808;2023-08-01T10:45:21;8.35;;;2.42;;
81703;SDS011;71117;52.352;4.808;2023-08-01T10:47:48;7.93;;;1.77;;
81703;SDS011;71117;52.352;4.808;2023-08-01T10:50:15;5.93;;;1.80;;
81703;SDS011;71117;52.352;4.808;2023-08-01T10:52:42;5.07;;;2.03;;
81703;SDS011;71117;52.352;4.808;2023-08-01T10:55:07;7.22;;;2.28;;
81703;SDS011;71117;52.352;4.808;2023-08-01T10:57:39;9.43;;;2.72;;
81703;SDS011;71117;52.352;4.808;2023-08-01T11:00:16;8.55;;;2.50;;
81703;SDS011;71117;52.352;4.808;2023-08-01T11:02:48;3.88;;;2.08;;
81703;SDS011;71117;52.352;4.808;2023-08-01T11:05:14;3.75;;;1.95;;
81703;SDS011;71117;52.352;4.808;2023-08-01T11:07:39;4.88;;;2.35;;
81703;SDS011;71117;52.352;4.808;2023-08-01T11:10:06;8.65;;;3.13;;
81703;SDS011;71117;52.352;4.808;2023-08-01T11:12:50;6.78;;;2.50;;
81703;SDS011;71117;52.352;4.808;2023-08-01T11:15:15;5.55;;;2.50;;
81703;SDS011;71117;52.352;4.808;2023-08-01T11:17:41;7.03;;;2.25;;
81703;SDS011;71117;52.352;4.808;2023-08-01T11:20:08;5.07;;;1.95;;
81703;SDS011;71117;52.352;4.808;2023-08-01T11:22:36;8.98;;;2.70;;
81703;SDS011;71117;52.352;4.808;2023-08-01T11:25:02;8.43;;;2.13;;
81703;SDS011;71117;52.352;4.808;2023-08-01T11:27:28;7.95;;;2.38;;
81703;SDS011;71117;52.352;4.808;2023-08-01T11:29:54;8.15;;;1.95;;
81703;SDS011;71117;52.352;4.808;2023-08-01T11:32:20;5.90;;;1.85;;
81703;SDS011;71117;52.352;4.808;2023-08-01T11:34:46;6.22;;;1.83;;
81703;SDS011;71117;52.352;4.808;2023-08-01T11:37:15;7.57;;;2.10;;
81703;SDS011;71117;52.352;4.808;2023-08-01T11:39:43;7.80;;;1.73;;
81703;SDS011;71117;52.352;4.808;2023-08-01T11:42:13;5.03;;;1.80;;
81703;SDS011;71117;52.352;4.808;2023-08-01T11:44:40;8.52;;;2.15;;
81703;SDS011;71117;52.352;4.808;2023-08-01T11:47:10;11.93;;;2.95;;
81703;SDS011;71117;52.352;4.808;2023-08-01T11:49:37;7.07;;;2.28;;
81703;SDS011;71117;52.352;4.808;2023-08-01T11:52:02;8.93;;;1.77;;
81703;SDS011;71117;52.352;4.808;2023-08-01T11:54:28;2.75;;;1.30;;
81703;SDS011;71117;52.352;4.808;2023-08-01T11:56:59;5.35;;;1.60;;
81703;SDS011;71117;52.352;4.808;2023-08-01T11:59:25;5.85;;;1.50;;
81703;SDS011;71117;52.352;4.808;2023-08-01T12:01:51;5.72;;;1.80;;
81703;SDS011;71117;52.352;4.808;2023-08-01T12:04:26;5.38;;;1.27;;
81703;SDS011;71117;52.352;4.808;2023-08-01T12:06:52;4.45;;;1.08;;
81703;SDS011;71117;52.352;4.808;2023-08-01T12:09:18;7.15;;;1.50;;
81703;SDS011;71117;52.352;4.808;2023-08-01T12:11:44;4.50;;;1.50;;
81703;SDS011;71117;52.352;4.808;2023-08-01T12:14:10;3.90;;;1.20;;
81703;SDS011;71117;52.352;4.808;2023-08-01T12:16:37;5.03;;;1.30;;
81703;SDS011;71117;52.352;4.808;2023-08-01T12:19:03;4.85;;;1.10;;
81703;SDS011;71117;52.352;4.808;2023-08-01T12:21:30;3.83;;;1.20;;
81703;SDS011;71117;52.352;4.808;2023-08-01T12:23:57;3.50;;;1.20;;
81703;SDS011;71117;52.352;4.808;2023-08-01T12:26:23;3.92;;;1.10;;
81703;SDS011;71117;52.352;4.808;2023-08-01T12:28:48;4.20;;;1.27;;
81703;SDS011;71117;52.352;4.808;2023-08-01T12:31:17;4.00;;;1.30;;
81703;SDS011;71117;52.352;4.808;2023-08-01T12:33:46;6.95;;;1.52;;
81703;SDS011;71117;52.352;4.808;2023-08-01T12:36:12;3.40;;;1.20;;
81703;SDS011;71117;52.352;4.808;2023-08-01T12:38:38;8.68;;;1.60;;
81703;SDS011;71117;52.352;4.808;2023-08-01T12:41:04;5.85;;;1.25;;
81703;SDS011;71117;52.352;4.808;2023-08-01T12:43:30;8.70;;;1.80;;
81703;SDS011;71117;52.352;4.808;2023-08-01T12:45:55;10.75;;;1.90;;
81703;SDS011;71117;52.352;4.808;2023-08-01T12:48:23;9.23;;;1.88;;
81703;SDS011;71117;52.352;4.808;2023-08-01T12:50:48;7.47;;;1.20;;
81703;SDS011;71117;52.352;4.808;2023-08-01T12:53:13;6.10;;;1.80;;
81703;SDS011;71117;52.352;4.808;2023-08-01T12:55:42;6.18;;;1.90;;
81703;SDS011;71117;52.352;4.808;2023-08-01T12:58:09;10.95;;;2.35;;
81703;SDS011;71117;52.352;4.808;2023-08-01T13:00:34;7.50;;;1.80;;
81703;SDS011;71117;52.352;4.808;2023-08-01T13:03:00;6.43;;;1.70;;
81703;SDS011;71117;52.352;4.808;2023-08-01T13:05:25;6.18;;;2.10;;
81703;SDS011;71117;52.352;4.808;2023-08-01T13:07:50;7.05;;;1.80;;
81703;SDS011;71117;52.352;4.808;2023-08-01T13:10:16;8.90;;;2.08;;
81703;SDS011;71117;52.352;4.808;2023-08-01T13:12:41;7.53;;;2.20;;
81703;SDS011;71117;52.352;4.808;2023-08-01T13:15:07;7.20;;;2.40;;
81703;SDS011;71117;52.352;4.808;2023-08-01T13:17:32;9.25;;;2.70;;
81703;SDS011;71117;52.352;4.808;2023-08-01T13:19:58;11.95;;;3.28;;
81703;SDS011;71117;52.352;4.808;2023-08-01T13:22:23;9.18;;;2.83;;
81703;SDS011;71117;52.352;4.808;2023-08-01T13:24:48;6.13;;;2.10;;
81703;SDS011;71117;52.352;4.808;2023-08-01T13:27:14;5.93;;;1.45;;
81703;SDS011;71117;52.352;4.808;2023-08-01T13:29:39;4.15;;;1.73;;
81703;SDS011;71117;52.352;4.808;2023-08-01T13:32:05;7.40;;;1.58;;
81703;SDS011;71117;52.352;4.808;2023-08-01T13:34:31;6.93;;;1.70;;
81703;SDS011;71117;52.352;4.808;2023-08-01T13:36:57;9.25;;;1.70;;
81703;SDS011;71117;52.352;4.808;2023-08-01T13:39:22;7.85;;;2.08;;
81703;SDS011;71117;52.352;4.808;2023-08-01T13:41:47;6.28;;;1.65;;
81703;SDS011;71117;52.352;4.808;2023-08-01T13:44:13;9.13;;;2.42;;
81703;SDS011;71117;52.352;4.808;2023-08-01T13:46:38;4.83;;;1.70;;
81703;SDS011;71117;52.352;4.808;2023-08-01T13:49:03;6.50;;;1.40;;
81703;SDS011;71117;52.352;4.808;2023-08-01T13:51:31;7.47;;;1.42;;
81703;SDS011;71117;52.352;4.808;2023-08-01T13:53:57;5.18;;;1.40;;
81703;SDS011;71117;52.352;4.808;2023-08-01T13:56:24;3.88;;;1.13;;
81703;SDS011;71117;52.352;4.808;2023-08-01T13:58:50;8.20;;;1.40;;
81703;SDS011;71117;52.352;4.808;2023-08-01T14:01:16;5.95;;;1.70;;
81703;SDS011;71117;52.352;4.808;2023-08-01T14:03:43;4.00;;;1.48;;
81703;SDS011;71117;52.352;4.808;2023-08-01T14:06:10;5.45;;;1.10;;
81703;SDS011;71117;52.352;4.808;2023-08-01T14:08:37;3.20;;;1.20;;
81703;SDS011;71117;52.352;4.808;2023-08-01T14:11:04;3.78;;;1.30;;
81703;SDS011;71117;52.352;4.808;2023-08-01T14:13:31;5.63;;;1.48;;
81703;SDS011;71117;52.352;4.808;2023-08-01T14:15:56;3.75;;;1.30;;
81703;SDS011;71117;52.352;4.808;2023-08-01T14:18:21;4.32;;;1.23;;
81703;SDS011;71117;52.352;4.808;2023-08-01T14:20:47;11.85;;;2.78;;
81703;SDS011;71117;52.352;4.808;2023-08-01T14:23:13;5.80;;;1.10;;
81703;SDS011;71117;52.352;4.808;2023-08-01T14:25:38;5.05;;;1.40;;
81703;SDS011;71117;52.352;4.808;2023-08-01T14:28:04;5.95;;;1.70;;
81703;SDS011;71117;52.352;4.808;2023-08-01T14:30:29;7.78;;;1.63;;
81703;SDS011;71117;52.352;4.808;2023-08-01T14:33:01;6.95;;;1.27;;
81703;SDS011;71117;52.352;4.808;2023-08-01T14:35:27;6.88;;;1.77;;
81703;SDS011;71117;52.352;4.808;2023-08-01T14:37:52;6.97;;;1.25;;
81703;SDS011;71117;52.352;4.808;2023-08-01T14:40:18;10.23;;;1.73;;
81703;SDS011;71117;52.352;4.808;2023-08-01T14:42:43;7.18;;;2.45;;
81703;SDS011;71117;52.352;4.808;2023-08-01T14:45:09;9.95;;;1.65;;
81703;SDS011;71117;52.352;4.808;2023-08-01T14:47:34;10.43;;;1.95;;